Time;durP1;ratioP1;P1;durP2;ratioP2;P2;SDS_P1;SDS_P2;PMS_P1;PMS_P2;Temp;Humidity;BMP_temperature;BMP_pressure;BME280_temperature;BME280_humidity;BME280_pressure;Samples;Min_cycle;Max_cycle;Signal;HPM_P1;HPM_P2
2022/09/28 00:02:20;;;;;;;;;;;11.70;99.90;;;;;;7332968;19;108579;-86
2022/09/28 00:04:47;;;;;;;;;;;11.70;99.90;;;;;;7334948;19;109167;-88
2022/09/28 00:07:14;;;;;;;;;;;11.60;99.90;;;;;;7336594;19;110672;-88
2022/09/28 00:09:42;;;;;;;;;;;11.60;99.90;;;;;;7339713;19;114486;-87
2022/09/28 00:12:09;;;;;;;;;;;11.60;99.90;;;;;;7337646;19;110595;-84
2022/09/28 00:14:36;;;;;;;;;;;11.60;99.90;;;;;;7339160;19;109546;-90
2022/09/28 00:17:03;;;;;;;;;;;11.50;99.90;;;;;;7336897;19;109747;-90
2022/09/28 00:19:30;;;;;;;;;;;11.50;99.90;;;;;;7336657;19;110021;-90
2022/09/28 00:21:56;;;;;;;;;;;11.50;99.90;;;;;;7343734;19;109951;-88
2022/09/28 00:24:23;;;;;;;;;;;11.50;99.90;;;;;;7341040;19;108926;-90
2022/09/28 00:26:54;;;;;;;;;;;11.50;99.90;;;;;;7340604;19;110829;-90
2022/09/28 00:29:22;;;;;;;;;;;11.50;99.90;;;;;;7342547;19;108568;-87
2022/09/28 00:31:58;;;;;;;;;;;11.50;99.90;;;;;;7340661;19;109254;-88
2022/09/28 00:34:26;;;;;;;;;;;11.50;99.90;;;;;;7336678;19;109138;-88
2022/09/28 00:36:53;;;;;;;;;;;11.50;99.90;;;;;;7338756;19;109142;-88
2022/09/28 00:39:20;;;;;;;;;;;11.50;99.90;;;;;;7338687;19;108649;-86
2022/09/28 00:41:47;;;;;;;;;;;11.50;99.90;;;;;;7338145;19;113516;-88
2022/09/28 00:44:23;;;;;;;;;;;11.50;99.90;;;;;;7346171;19;109308;-90
2022/09/28 00:47:01;;;;;;;;;;;11.40;99.90;;;;;;7339188;19;110412;-86
2022/09/28 00:49:48;;;;;;;;;;;11.40;99.90;;;;;;7339504;19;109400;-91
2022/09/28 00:52:18;;;;;;;;;;;11.40;99.90;;;;;;7339412;19;109437;-88
2022/09/28 00:54:46;;;;;;;;;;;11.30;99.90;;;;;;7337130;19;111720;-87
2022/09/28 00:57:14;;;;;;;;;;;11.20;99.90;;;;;;7340921;19;108984;-88
2022/09/28 00:59:41;;;;;;;;;;;11.20;99.90;;;;;;7342688;19;109329;-89
2022/09/28 01:02:09;;;;;;;;;;;11.20;99.90;;;;;;7341281;19;111866;-89
2022/09/28 01:04:37;;;;;;;;;;;11.20;99.90;;;;;;7340345;19;109266;-89
2022/09/28 01:07:05;;;;;;;;;;;11.10;99.90;;;;;;7343624;19;109534;-86
2022/09/28 01:09:32;;;;;;;;;;;11.10;99.90;;;;;;7338276;19;108694;-89
2022/09/28 01:11:59;;;;;;;;;;;11.10;99.90;;;;;;7339426;19;108842;-87
2022/09/28 01:14:26;;;;;;;;;;;11.10;99.90;;;;;;7338127;19;110238;-88
2022/09/28 01:17:12;;;;;;;;;;;11.00;99.90;;;;;;7336288;19;108346;-89
2022/09/28 01:19:45;;;;;;;;;;;11.00;99.90;;;;;;7338132;19;112170;-87
2022/09/28 01:22:17;;;;;;;;;;;10.90;99.90;;;;;;7338254;19;109139;-86
2022/09/28 01:24:45;;;;;;;;;;;10.90;99.90;;;;;;7341958;19;109194;-88
2022/09/28 01:27:12;;;;;;;;;;;11.00;99.90;;;;;;7338881;19;109515;-90
2022/09/28 01:29:48;;;;;;;;;;;11.00;99.90;;;;;;7343813;19;110179;-89
2022/09/28 01:32:33;;;;;;;;;;;11.00;99.90;;;;;;7337377;19;110531;-87
2022/09/28 01:35:26;;;;;;;;;;;11.00;99.90;;;;;;7339036;19;109490;-89
2022/09/28 01:37:53;;;;;;;;;;;11.00;99.90;;;;;;7335637;19;109302;-87
2022/09/28 01:40:21;;;;;;;;;;;11.00;99.90;;;;;;7337545;19;109261;-89
2022/09/28 01:43:11;;;;;;;;;;;11.00;99.90;;;;;;7337771;19;110218;-88
2022/09/28 01:45:53;;;;;;;;;;;11.00;99.90;;;;;;7336992;19;108587;-88
2022/09/28 01:48:25;;;;;;;;;;;11.00;99.90;;;;;;7337779;19;110028;-89
2022/09/28 01:50:54;;;;;;;;;;;11.00;99.90;;;;;;7346002;19;110761;-88
2022/09/28 01:53:23;;;;;;;;;;;11.00;99.90;;;;;;7336962;19;110253;-86
2022/09/28 01:55:53;;;;;;;;;;;11.00;99.90;;;;;;7348691;19;111740;-91
2022/09/28 01:58:32;;;;;;;;;;;11.00;99.90;;;;;;7361662;19;107320;-87
2022/09/28 02:01:01;;;;;;;;;;;11.00;99.90;;;;;;7354046;19;108063;-88
2022/09/28 02:03:38;;;;;;;;;;;11.00;99.90;;;;;;7360279;19;112407;-89
2022/09/28 02:06:10;;;;;;;;;;;11.00;99.90;;;;;;7367090;19;108123;-88
2022/09/28 02:08:45;;;;;;;;;;;11.00;99.90;;;;;;7340162;19;108309;-89
2022/09/28 02:11:14;;;;;;;;;;;10.90;99.90;;;;;;7337688;19;110551;-89
2022/09/28 02:13:44;;;;;;;;;;;11.00;99.90;;;;;;7344057;19;108697;-90
2022/09/28 02:16:10;;;;;;;;;;;10.90;99.90;;;;;;7337619;19;110590;-92
2022/09/28 02:18:37;;;;;;;;;;;10.90;99.90;;;;;;7337036;19;109538;-89
2022/09/28 02:21:07;;;;;;;;;;;10.90;99.90;;;;;;7336853;19;110582;-90
2022/09/28 02:23:36;;;;;;;;;;;10.90;99.90;;;;;;7337034;19;110612;-89
2022/09/28 02:26:09;;;;;;;;;;;10.90;99.90;;;;;;7338009;19;109429;-89
2022/09/28 02:28:36;;;;;;;;;;;10.90;99.90;;;;;;7339166;19;109536;-90
2022/09/28 02:31:03;;;;;;;;;;;10.90;99.90;;;;;;7337190;19;109830;-88
2022/09/28 02:33:35;;;;;;;;;;;10.90;99.90;;;;;;7335302;19;108784;-88
2022/09/28 02:36:02;;;;;;;;;;;10.90;99.90;;;;;;7341175;19;109044;-89
2022/09/28 02:38:30;;;;;;;;;;;10.90;99.90;;;;;;7336000;19;109091;-88
2022/09/28 02:41:07;;;;;;;;;;;10.90;99.90;;;;;;7336640;19;109691;-87
2022/09/28 02:43:50;;;;;;;;;;;10.90;99.90;;;;;;7335838;19;113322;-89
2022/09/28 02:46:28;;;;;;;;;;;10.90;99.90;;;;;;7336190;19;108355;-89
2022/09/28 02:48:58;;;;;;;;;;;10.90;99.90;;;;;;7334967;19;109780;-89
2022/09/28 02:52:05;;;;;;;;;;;10.90;99.90;;;;;;7336028;19;111831;-89
2022/09/28 02:54:47;;;;;;;;;;;10.90;99.90;;;;;;7332868;19;109057;-89
2022/09/28 02:57:40;;;;;;;;;;;10.90;99.90;;;;;;7334296;19;110221;-88
2022/09/28 03:00:24;;;;;;;;;;;10.90;99.90;;;;;;7341147;19;111183;-88
2022/09/28 03:03:03;;;;;;;;;;;10.90;99.90;;;;;;7334731;19;109055;-88
2022/09/28 03:05:43;;;;;;;;;;;10.90;99.90;;;;;;7334486;19;110007;-90
2022/09/28 03:08:19;;;;;;;;;;;10.90;99.90;;;;;;7336019;19;108339;-91
2022/09/28 03:10:52;;;;;;;;;;;10.90;99.90;;;;;;7335200;19;109081;-89
2022/09/28 03:13:19;;;;;;;;;;;10.90;99.90;;;;;;7335450;19;113419;-91
2022/09/28 03:15:46;;;;;;;;;;;10.90;99.90;;;;;;7333952;19;108899;-89
2022/09/28 03:18:15;;;;;;;;;;;10.80;99.90;;;;;;7336492;19;111068;-87
2022/09/28 03:20:42;;;;;;;;;;;10.80;99.90;;;;;;7333846;19;110422;-90
2022/09/28 03:23:08;;;;;;;;;;;10.80;99.90;;;;;;7340051;19;110008;-89
2022/09/28 03:25:50;;;;;;;;;;;10.80;99.90;;;;;;7333656;19;110510;-89
2022/09/28 03:28:17;;;;;;;;;;;10.70;99.90;;;;;;7331598;19;108867;-89
2022/09/28 03:30:44;;;;;;;;;;;10.70;99.90;;;;;;7336136;19;111625;-88
2022/09/28 03:33:11;;;;;;;;;;;10.70;99.90;;;;;;7332385;19;111447;-88
2022/09/28 03:35:38;;;;;;;;;;;10.70;99.90;;;;;;7335816;19;109054;-88
2022/09/28 03:38:05;;;;;;;;;;;10.70;99.90;;;;;;7332038;19;109156;-88
2022/09/28 03:40:32;;;;;;;;;;;10.70;99.90;;;;;;7337070;19;110302;-88
2022/09/28 03:42:59;;;;;;;;;;;10.70;99.90;;;;;;7333397;19;108441;-87
2022/09/28 03:45:26;;;;;;;;;;;10.70;99.90;;;;;;7338673;19;109399;-88
2022/09/28 03:47:53;;;;;;;;;;;10.70;99.90;;;;;;7334009;19;109490;-89
2022/09/28 03:50:20;;;;;;;;;;;10.60;99.90;;;;;;7333876;19;112001;-87
2022/09/28 03:52:47;;;;;;;;;;;10.60;99.90;;;;;;7335080;19;110423;-87
2022/09/28 03:55:14;;;;;;;;;;;10.70;99.90;;;;;;7335375;19;110048;-89
2022/09/28 03:57:41;;;;;;;;;;;10.70;99.90;;;;;;7333983;19;110907;-87
2022/09/28 04:00:09;;;;;;;;;;;10.60;99.90;;;;;;7331965;19;110470;-86
2022/09/28 04:02:36;;;;;;;;;;;10.60;99.90;;;;;;7334495;19;108389;-87
2022/09/28 04:05:03;;;;;;;;;;;10.60;99.90;;;;;;7338555;19;109203;-86
2022/09/28 04:07:30;;;;;;;;;;;10.60;99.90;;;;;;7334646;19;108376;-86
2022/09/28 04:09:57;;;;;;;;;;;10.60;99.90;;;;;;7332982;19;111071;-87
2022/09/28 04:12:23;;;;;;;;;;;10.50;99.90;;;;;;7330460;19;112091;-87
2022/09/28 04:14:50;;;;;;;;;;;10.50;99.90;;;;;;7333885;19;108598;-86
2022/09/28 04:17:17;;;;;;;;;;;10.50;99.90;;;;;;7330298;19;109610;-86
2022/09/28 04:19:46;;;;;;;;;;;10.40;99.90;;;;;;7331789;19;110305;-86
2022/09/28 04:22:13;;;;;;;;;;;10.40;99.90;;;;;;7331555;19;108989;-86
2022/09/28 04:24:42;;;;;;;;;;;10.40;99.90;;;;;;7332757;19;109604;-86
2022/09/28 04:29:54;;;;;;;;;;;10.30;99.90;;;;;;7331148;19;108894;-86
2022/09/28 04:32:21;;;;;;;;;;;10.30;99.90;;;;;;7333071;19;110557;-86
2022/09/28 04:34:48;;;;;;;;;;;10.30;99.90;;;;;;7336470;19;108666;-87
2022/09/28 04:37:15;;;;;;;;;;;10.20;99.90;;;;;;7335672;19;111399;-87
2022/09/28 04:39:42;;;;;;;;;;;10.20;99.90;;;;;;7333117;19;109095;-87
2022/09/28 04:42:14;;;;;;;;;;;10.20;99.90;;;;;;7336074;19;108423;-86
2022/09/28 04:44:41;;;;;;;;;;;10.20;99.90;;;;;;7333810;19;109228;-87
2022/09/28 04:47:08;;;;;;;;;;;10.10;99.90;;;;;;7331835;19;110173;-88
2022/09/28 04:49:37;;;;;;;;;;;10.10;99.90;;;;;;7338255;19;110132;-87
2022/09/28 04:52:04;;;;;;;;;;;10.10;99.90;;;;;;7334712;19;109750;-88
2022/09/28 04:54:31;;;;;;;;;;;10.00;99.90;;;;;;7336184;19;110371;-88
2022/09/28 04:56:57;;;;;;;;;;;10.00;99.90;;;;;;7339632;19;110128;-88
2022/09/28 04:59:24;;;;;;;;;;;10.00;99.90;;;;;;7338558;19;110641;-88
2022/09/28 05:01:52;;;;;;;;;;;10.00;99.90;;;;;;7337323;19;109297;-88
2022/09/28 05:04:19;;;;;;;;;;;10.00;99.90;;;;;;7336520;19;109204;-87
2022/09/28 05:06:51;;;;;;;;;;;10.00;99.90;;;;;;7340678;19;110186;-88
2022/09/28 05:09:18;;;;;;;;;;;10.00;99.90;;;;;;7337985;19;108967;-88
2022/09/28 05:11:47;;;;;;;;;;;10.00;99.90;;;;;;7342086;19;110212;-87
2022/09/28 05:14:15;;;;;;;;;;;10.00;99.90;;;;;;7339043;19;109460;-86
2022/09/28 05:16:43;;;;;;;;;;;10.00;99.90;;;;;;7335260;19;109302;-87
2022/09/28 05:19:11;;;;;;;;;;;9.90;99.90;;;;;;7336973;19;110457;-89
2022/09/28 05:21:38;;;;;;;;;;;9.90;99.90;;;;;;7337591;19;108511;-87
2022/09/28 05:24:06;;;;;;;;;;;9.90;99.90;;;;;;7340719;19;109005;-87
2022/09/28 05:26:33;;;;;;;;;;;9.90;99.90;;;;;;7339049;19;110292;-88
2022/09/28 05:29:00;;;;;;;;;;;9.80;99.90;;;;;;7340268;19;108351;-88
2022/09/28 05:31:27;;;;;;;;;;;9.90;99.90;;;;;;7336833;19;112602;-88
2022/09/28 05:33:54;;;;;;;;;;;9.90;99.90;;;;;;7343114;19;112902;-88
2022/09/28 05:36:21;;;;;;;;;;;9.80;99.90;;;;;;7336163;19;109444;-87
2022/09/28 05:38:48;;;;;;;;;;;9.80;99.90;;;;;;7339641;19;110601;-86
2022/09/28 05:41:15;;;;;;;;;;;9.80;99.90;;;;;;7331706;19;108437;-87
2022/09/28 05:43:42;;;;;;;;;;;9.80;99.90;;;;;;7333706;19;109092;-87
2022/09/28 05:46:10;;;;;;;;;;;9.80;99.90;;;;;;7336609;19;110435;-87
2022/09/28 05:48:37;;;;;;;;;;;9.70;99.90;;;;;;7338226;19;109043;-86
2022/09/28 05:51:04;;;;;;;;;;;9.70;99.90;;;;;;7337365;19;108635;-87
2022/09/28 05:53:30;;;;;;;;;;;9.70;99.90;;;;;;7336721;19;110707;-87
2022/09/28 05:55:58;;;;;;;;;;;9.70;99.90;;;;;;7339772;19;110887;-87
2022/09/28 05:58:25;;;;;;;;;;;9.80;99.90;;;;;;7334138;19;110687;-86
2022/09/28 06:00:55;;;;;;;;;;;9.70;99.90;;;;;;7334620;19;108363;-86
2022/09/28 06:03:22;;;;;;;;;;;9.70;99.90;;;;;;7335733;19;108521;-86
2022/09/28 06:05:49;;;;;;;;;;;9.70;99.90;;;;;;7338644;19;110248;-87
2022/09/28 06:08:16;;;;;;;;;;;9.70;99.90;;;;;;7339823;19;108685;-87
2022/09/28 06:10:44;;;;;;;;;;;9.70;99.90;;;;;;7341104;19;109924;-87
2022/09/28 06:13:11;;;;;;;;;;;9.70;99.90;;;;;;7341925;19;110452;-87
2022/09/28 06:15:40;;;;;;;;;;;9.70;99.90;;;;;;7348846;19;109262;-87
2022/09/28 06:18:15;;;;;;;;;;;9.70;99.90;;;;;;7339999;19;109190;-88
2022/09/28 06:20:42;;;;;;;;;;;9.70;99.90;;;;;;7338417;19;109295;-87
2022/09/28 06:23:10;;;;;;;;;;;9.70;99.90;;;;;;7335938;19;108935;-87
2022/09/28 06:25:37;;;;;;;;;;;9.70;99.90;;;;;;7335930;19;110241;-86
2022/09/28 06:28:05;;;;;;;;;;;9.70;99.90;;;;;;7334868;19;108897;-86
2022/09/28 06:30:33;;;;;;;;;;;9.70;99.90;;;;;;7336091;19;110253;-88
2022/09/28 06:33:01;;;;;;;;;;;9.80;99.90;;;;;;7335344;19;109917;-87
2022/09/28 06:35:30;;;;;;;;;;;9.80;99.90;;;;;;7336606;19;108800;-88
2022/09/28 06:37:58;;;;;;;;;;;9.90;99.90;;;;;;7339738;19;108141;-86
2022/09/28 06:40:25;;;;;;;;;;;9.90;99.90;;;;;;7334511;19;109227;-87
2022/09/28 06:43:05;;;;;;;;;;;9.90;99.90;;;;;;7337714;19;109096;-88
2022/09/28 06:45:32;;;;;;;;;;;9.90;99.90;;;;;;7335567;19;112005;-88
2022/09/28 06:48:00;;;;;;;;;;;10.00;99.90;;;;;;7338307;19;109221;-88
2022/09/28 06:50:31;;;;;;;;;;;10.00;99.90;;;;;;7335271;19;109660;-88
2022/09/28 06:52:58;;;;;;;;;;;10.10;99.90;;;;;;7337212;19;110986;-87
2022/09/28 06:55:26;;;;;;;;;;;10.20;99.90;;;;;;7335433;19;108965;-85
2022/09/28 06:57:57;;;;;;;;;;;10.20;99.90;;;;;;7335256;19;109348;-89
2022/09/28 07:00:28;;;;;;;;;;;10.30;99.90;;;;;;7339972;19;110325;-85
2022/09/28 07:02:55;;;;;;;;;;;10.30;99.90;;;;;;7334784;19;109167;-86
2022/09/28 07:05:25;;;;;;;;;;;10.30;99.90;;;;;;7336910;19;111684;-87
2022/09/28 07:07:56;;;;;;;;;;;10.30;99.90;;;;;;7333829;19;108864;-86
2022/09/28 07:10:23;;;;;;;;;;;10.30;99.90;;;;;;7333162;19;109952;-89
2022/09/28 07:12:50;;;;;;;;;;;10.40;99.90;;;;;;7335383;19;110421;-86
2022/09/28 07:15:17;;;;;;;;;;;10.40;99.90;;;;;;7331761;19;109009;-87
2022/09/28 07:17:45;;;;;;;;;;;10.40;99.90;;;;;;7334467;19;108293;-85
2022/09/28 07:20:26;;;;;;;;;;;10.50;99.90;;;;;;7334152;19;110548;-85
2022/09/28 07:23:01;;;;;;;;;;;10.50;99.90;;;;;;7338956;19;108680;-84
2022/09/28 07:25:46;;;;;;;;;;;10.60;99.90;;;;;;7334319;19;109415;-86
2022/09/28 07:28:14;;;;;;;;;;;10.70;99.90;;;;;;7334236;19;108606;-85
2022/09/28 07:30:42;;;;;;;;;;;10.70;99.90;;;;;;7336319;19;110477;-86
2022/09/28 07:33:11;;;;;;;;;;;10.80;99.90;;;;;;7331729;19;110768;-87
2022/09/28 07:35:40;;;;;;;;;;;10.80;99.90;;;;;;7335811;19;110274;-84
2022/09/28 07:38:08;;;;;;;;;;;10.90;99.90;;;;;;7336633;19;109802;-88
2022/09/28 07:43:22;;;;;;;;;;;11.00;99.90;;;;;;7347087;19;108669;-86
2022/09/28 07:45:49;;;;;;;;;;;11.10;99.90;;;;;;7351737;19;108382;-90
2022/09/28 07:48:17;;;;;;;;;;;11.10;99.90;;;;;;7335558;19;108685;-86
2022/09/28 07:50:50;;;;;;;;;;;11.10;99.90;;;;;;7333253;19;109156;-90
2022/09/28 07:53:18;;;;;;;;;;;11.10;99.90;;;;;;7332943;19;110104;-89
2022/09/28 07:55:51;;;;;;;;;;;11.20;99.90;;;;;;7332639;19;109076;-87
2022/09/28 07:58:19;;;;;;;;;;;11.20;99.90;;;;;;7334210;19;108701;-87
2022/09/28 08:00:47;;;;;;;;;;;11.20;99.90;;;;;;7332348;19;109606;-89
2022/09/28 08:03:19;;;;;;;;;;;11.20;99.90;;;;;;7329127;19;111531;-78
2022/09/28 08:05:46;;;;;;;;;;;11.20;99.90;;;;;;7342223;19;108817;-78
2022/09/28 08:08:13;;;;;;;;;;;11.20;99.90;;;;;;7333786;19;108857;-78
2022/09/28 08:10:41;;;;;;;;;;;11.20;99.90;;;;;;7331588;19;108799;-78
2022/09/28 08:13:13;;;;;;;;;;;11.20;99.90;;;;;;7336869;19;110228;-79
2022/09/28 08:15:41;;;;;;;;;;;11.40;99.90;;;;;;7336832;19;110745;-79
2022/09/28 08:18:08;;;;;;;;;;;11.50;99.90;;;;;;7330667;19;109365;-80
2022/09/28 08:23:22;;;;;;;;;;;11.50;99.90;;;;;;7332592;19;108889;-78
2022/09/28 08:25:49;;;;;;;;;;;11.60;99.90;;;;;;7329974;19;110390;-79
2022/09/28 08:28:16;;;;;;;;;;;11.60;99.90;;;;;;7340628;19;113398;-78
2022/09/28 08:30:44;;;;;;;;;;;11.60;99.90;;;;;;7341730;19;109124;-78
2022/09/28 08:33:12;;;;;;;;;;;11.70;99.90;;;;;;7336564;19;111117;-78
2022/09/28 08:35:40;;;;;;;;;;;11.80;99.90;;;;;;7338278;19;109084;-78
2022/09/28 08:38:07;;;;;;;;;;;11.90;99.90;;;;;;7336555;19;109260;-78
2022/09/28 08:40:37;;;;;;;;;;;11.90;99.90;;;;;;7338277;19;109459;-78
2022/09/28 08:43:12;;;;;;;;;;;12.00;99.90;;;;;;7335935;19;109625;-78
2022/09/28 08:45:39;;;;;;;;;;;12.10;99.90;;;;;;7338242;19;108407;-78
2022/09/28 08:50:58;;;;;;;;;;;12.40;99.90;;;;;;7344384;19;109062;-78
2022/09/28 08:53:25;;;;;;;;;;;12.50;99.90;;;;;;7337060;19;111850;-78
2022/09/28 08:55:52;;;;;;;;;;;12.60;99.90;;;;;;7339850;19;109225;-79
2022/09/28 08:58:30;;;;;;;;;;;12.70;99.90;;;;;;7336671;19;108492;-74
2022/09/28 09:00:58;;;;;;;;;;;12.70;99.90;;;;;;7335497;19;110864;-75
2022/09/28 09:03:35;;;;;;;;;;;12.90;99.90;;;;;;7334577;19;109692;-75
2022/09/28 09:06:17;;;;;;;;;;;13.10;99.90;;;;;;7338666;19;109055;-75
2022/09/28 09:08:44;;;;;;;;;;;13.30;99.90;;;;;;7340047;19;110239;-73
2022/09/28 09:11:14;;;;;;;;;;;13.40;99.90;;;;;;7337562;19;108339;-76
2022/09/28 09:13:56;;;;;;;;;;;13.50;99.90;;;;;;7344999;19;108650;-74
2022/09/28 09:16:35;;;;;;;;;;;13.60;99.90;;;;;;7336537;19;108314;-75
2022/09/28 09:19:16;;;;;;;;;;;13.70;99.90;;;;;;7332154;19;111379;-74
2022/09/28 09:21:49;;;;;;;;;;;13.80;99.90;;;;;;7330966;19;110247;-75
2022/09/28 09:24:39;;;;;;;;;;;13.90;99.90;;;;;;7333684;19;108441;-75
2022/09/28 09:27:13;;;;;;;;;;;14.00;99.90;;;;;;7336170;19;109640;-74
2022/09/28 09:30:10;;;;;;;;;;;14.20;99.90;;;;;;7337759;19;109405;-74
2022/09/28 09:32:37;;;;;;;;;;;14.20;99.90;;;;;;7335812;19;108833;-76
2022/09/28 09:35:10;;;;;;;;;;;14.30;99.90;;;;;;7335019;19;109559;-75
2022/09/28 09:37:55;;;;;;;;;;;14.40;99.90;;;;;;7341550;19;110842;-75
2022/09/28 09:40:25;;;;;;;;;;;14.40;99.90;;;;;;7333377;19;110385;-75
2022/09/28 09:42:58;;;;;;;;;;;14.50;99.90;;;;;;7336328;19;109500;-76
2022/09/28 09:45:40;;;;;;;;;;;14.50;99.90;;;;;;7336178;19;108687;-74
2022/09/28 09:48:24;;;;;;;;;;;14.60;99.90;;;;;;7337520;19;111643;-75
2022/09/28 09:50:56;;;;;;;;;;;14.60;99.90;;;;;;7338951;19;110296;-74
2022/09/28 09:53:37;;;;;;;;;;;14.70;99.90;;;;;;7339786;19;108639;-75
2022/09/28 09:56:12;;;;;;;;;;;14.60;99.90;;;;;;7337550;19;109107;-75
2022/09/28 09:58:47;;;;;;;;;;;14.60;99.90;;;;;;7337368;19;110363;-75
2022/09/28 10:01:16;;;;;;;;;;;14.60;99.90;;;;;;7341727;19;109289;-74
2022/09/28 10:03:47;;;;;;;;;;;14.70;99.90;;;;;;7336704;19;109210;-75
2022/09/28 10:06:24;;;;;;;;;;;14.80;99.90;;;;;;7336648;19;108911;-73
2022/09/28 10:09:11;;;;;;;;;;;14.80;99.90;;;;;;7337803;19;109672;-74
2022/09/28 10:11:41;;;;;;;;;;;15.00;99.90;;;;;;7335937;19;110249;-74
2022/09/28 10:14:21;;;;;;;;;;;15.10;99.90;;;;;;7336274;19;108765;-74
2022/09/28 10:16:49;;;;;;;;;;;15.20;99.90;;;;;;7333714;19;110248;-75
2022/09/28 10:19:22;;;;;;;;;;;15.40;99.90;;;;;;7336681;19;110896;-74
2022/09/28 10:21:50;;;;;;;;;;;15.40;99.90;;;;;;7342411;19;109117;-74
2022/09/28 10:24:21;;;;;;;;;;;15.40;99.90;;;;;;7336852;19;110126;-75
2022/09/28 10:26:51;;;;;;;;;;;15.40;99.90;;;;;;7336829;19;109371;-75
2022/09/28 10:29:20;;;;;;;;;;;15.50;99.90;;;;;;7338534;19;110089;-75
2022/09/28 10:31:50;;;;;;;;;;;15.50;99.90;;;;;;7335563;19;110878;-75
2022/09/28 10:34:23;;;;;;;;;;;15.50;99.90;;;;;;7336754;19;109071;-75
2022/09/28 10:36:54;;;;;;;;;;;15.60;99.90;;;;;;7336822;19;109692;-74
2022/09/28 10:39:28;;;;;;;;;;;15.60;99.90;;;;;;7332689;19;109127;-75
2022/09/28 10:41:57;;;;;;;;;;;15.50;99.90;;;;;;7334830;19;108326;-74
2022/09/28 10:44:24;;;;;;;;;;;15.50;99.90;;;;;;7340752;19;109194;-75
2022/09/28 10:46:55;;;;;;;;;;;15.60;99.90;;;;;;7335356;19;109799;-74
2022/09/28 10:49:22;;;;;;;;;;;15.60;99.90;;;;;;7334599;19;109111;-74
2022/09/28 10:51:52;;;;;;;;;;;15.60;99.90;;;;;;7335971;19;112079;-75
2022/09/28 10:54:29;;;;;;;;;;;15.70;99.90;;;;;;7333738;19;108884;-74
2022/09/28 10:56:57;;;;;;;;;;;15.70;99.90;;;;;;7334752;19;109850;-75
2022/09/28 10:59:30;;;;;;;;;;;15.70;99.90;;;;;;7333724;19;110626;-75
2022/09/28 11:01:59;;;;;;;;;;;15.70;99.90;;;;;;7335638;19;109032;-75
2022/09/28 11:04:37;;;;;;;;;;;15.70;99.90;;;;;;7333183;19;109110;-75
2022/09/28 11:07:03;;;;;;;;;;;15.70;99.90;;;;;;7340712;19;110468;-74
2022/09/28 11:09:31;;;;;;;;;;;15.60;99.90;;;;;;7333950;19;109845;-74
2022/09/28 11:11:59;;;;;;;;;;;15.60;99.90;;;;;;7334544;19;110244;-75
2022/09/28 11:14:34;;;;;;;;;;;15.50;99.90;;;;;;7334676;19;108515;-75
2022/09/28 11:17:17;;;;;;;;;;;15.50;99.90;;;;;;7334667;19;109500;-76
2022/09/28 11:19:44;;;;;;;;;;;15.50;99.90;;;;;;7334218;19;110311;-76
2022/09/28 11:22:25;;;;;;;;;;;15.50;99.90;;;;;;7330959;19;118758;-76
2022/09/28 11:25:10;;;;;;;;;;;15.50;99.90;;;;;;7332776;19;109349;-75
2022/09/28 11:27:37;;;;;;;;;;;15.50;99.90;;;;;;7334608;19;110859;-75
2022/09/28 11:30:04;;;;;;;;;;;15.50;99.90;;;;;;7338559;19;109467;-75
2022/09/28 11:32:40;;;;;;;;;;;15.50;99.90;;;;;;7333223;19;109740;-75
2022/09/28 11:35:15;;;;;;;;;;;15.50;99.90;;;;;;7332771;19;108846;-75
2022/09/28 11:37:57;;;;;;;;;;;15.50;99.90;;;;;;7333172;19;110047;-75
2022/09/28 11:40:24;;;;;;;;;;;15.50;99.90;;;;;;7332155;19;110892;-76
2022/09/28 11:42:59;;;;;;;;;;;15.50;99.90;;;;;;7333687;19;108793;-75
2022/09/28 11:45:31;;;;;;;;;;;15.50;99.90;;;;;;7333571;19;109134;-75
2022/09/28 11:48:00;;;;;;;;;;;15.60;99.90;;;;;;7334934;19;109090;-75
2022/09/28 11:50:27;;;;;;;;;;;15.70;99.90;;;;;;7332776;19;109057;-75
2022/09/28 11:53:01;;;;;;;;;;;15.70;99.90;;;;;;7335454;19;109261;-76
2022/09/28 11:55:43;;;;;;;;;;;15.80;99.90;;;;;;7332316;19;109313;-76
2022/09/28 11:58:25;;;;;;;;;;;15.90;99.90;;;;;;7335615;19;109216;-75
2022/09/28 12:00:55;;;;;;;;;;;16.00;99.90;;;;;;7332932;19;110319;-74
2022/09/28 12:03:27;;;;;;;;;;;16.20;99.90;;;;;;7337524;19;108730;-74
2022/09/28 12:06:03;;;;;;;;;;;16.20;99.90;;;;;;7338796;19;111082;-75
2022/09/28 12:08:33;;;;;;;;;;;16.30;99.90;;;;;;7340599;19;110365;-76
2022/09/28 12:11:03;;;;;;;;;;;16.30;99.90;;;;;;7339366;19;109388;-75
2022/09/28 12:13:36;;;;;;;;;;;16.40;99.90;;;;;;7336326;19;109336;-75
2022/09/28 12:16:05;;;;;;;;;;;16.50;99.90;;;;;;7346123;19;110712;-76
2022/09/28 12:18:57;;;;;;;;;;;16.50;99.90;;;;;;7339727;19;111837;-75
2022/09/28 12:21:28;;;;;;;;;;;16.50;99.90;;;;;;7339131;19;108819;-76
2022/09/28 12:24:02;;;;;;;;;;;16.40;99.90;;;;;;7339350;19;109263;-75
2022/09/28 12:26:48;;;;;;;;;;;16.40;99.90;;;;;;7337293;19;109782;-75
2022/09/28 12:29:19;;;;;;;;;;;16.40;99.90;;;;;;7337792;19;110414;-75
2022/09/28 12:31:52;;;;;;;;;;;16.40;99.90;;;;;;7337651;19;108830;-74
2022/09/28 12:34:20;;;;;;;;;;;16.60;99.90;;;;;;7338414;19;109157;-76
2022/09/28 12:37:04;;;;;;;;;;;16.80;99.90;;;;;;7344782;19;114659;-75
2022/09/28 12:39:56;;;;;;;;;;;16.90;99.90;;;;;;7338914;19;110027;-75
2022/09/28 12:42:43;;;;;;;;;;;17.20;99.90;;;;;;7336341;19;112724;-76
2022/09/28 12:45:16;;;;;;;;;;;17.40;99.90;;;;;;7337315;19;109865;-75
2022/09/28 12:48:06;;;;;;;;;;;17.40;99.90;;;;;;7338693;19;109917;-75
2022/09/28 12:50:52;;;;;;;;;;;17.60;99.90;;;;;;7339429;19;110453;-74
2022/09/28 12:53:29;;;;;;;;;;;17.60;99.90;;;;;;7338126;19;109183;-75
2022/09/28 12:56:00;;;;;;;;;;;17.60;99.90;;;;;;7335452;19;111958;-75
2022/09/28 12:58:30;;;;;;;;;;;17.70;99.90;;;;;;7334690;19;110234;-74
2022/09/28 13:01:14;;;;;;;;;;;17.70;99.90;;;;;;7344036;19;109241;-75
2022/09/28 13:03:44;;;;;;;;;;;17.60;99.90;;;;;;7338773;19;110115;-75
2022/09/28 13:06:30;;;;;;;;;;;17.30;99.90;;;;;;7336952;19;115137;-75
2022/09/28 13:09:00;;;;;;;;;;;17.10;99.90;;;;;;7338095;19;109407;-75
2022/09/28 13:11:30;;;;;;;;;;;17.00;99.90;;;;;;7336038;19;109784;-75
2022/09/28 13:14:07;;;;;;;;;;;16.80;99.90;;;;;;7335415;19;108394;-76
2022/09/28 13:16:44;;;;;;;;;;;16.70;99.90;;;;;;7340235;19;109645;-75
2022/09/28 13:19:38;;;;;;;;;;;16.60;99.90;;;;;;7338505;19;110357;-76
2022/09/28 13:22:21;;;;;;;;;;;16.50;99.90;;;;;;7336349;19;109975;-75
2022/09/28 13:24:49;;;;;;;;;;;16.30;99.90;;;;;;7343331;19;109612;-76
2022/09/28 13:27:19;;;;;;;;;;;16.30;99.90;;;;;;7337020;19;109247;-75
2022/09/28 13:29:49;;;;;;;;;;;16.20;99.90;;;;;;7336734;19;109622;-76
2022/09/28 13:32:17;;;;;;;;;;;16.10;99.90;;;;;;7333973;19;110394;-76
2022/09/28 13:34:47;;;;;;;;;;;16.10;99.90;;;;;;7335625;19;108570;-75
2022/09/28 13:37:18;;;;;;;;;;;16.00;99.90;;;;;;7337965;19;109221;-75
2022/09/28 13:39:58;;;;;;;;;;;16.00;99.90;;;;;;7335618;19;110312;-76
2022/09/28 13:42:43;;;;;;;;;;;16.00;99.90;;;;;;7337712;19;108332;-75
2022/09/28 13:45:16;;;;;;;;;;;15.90;99.90;;;;;;7336528;19;109227;-76
2022/09/28 13:47:46;;;;;;;;;;;15.90;99.90;;;;;;7343095;19;110340;-75
2022/09/28 13:50:16;;;;;;;;;;;15.80;99.90;;;;;;7335777;19;109748;-75
2022/09/28 13:52:55;;;;;;;;;;;15.80;99.90;;;;;;7336606;19;110351;-75
2022/09/28 13:55:31;;;;;;;;;;;15.80;99.90;;;;;;7337002;19;108976;-75
2022/09/28 13:58:13;;;;;;;;;;;15.80;99.90;;;;;;7334496;19;110877;-75
2022/09/28 14:00:57;;;;;;;;;;;15.80;99.90;;;;;;7338486;19;113064;-75
2022/09/28 14:03:24;;;;;;;;;;;15.80;99.90;;;;;;7335770;19;109472;-75
2022/09/28 14:05:51;;;;;;;;;;;15.90;99.90;;;;;;7337844;19;110180;-74
2022/09/28 14:08:24;;;;;;;;;;;16.00;99.90;;;;;;7334486;19;110130;-75
2022/09/28 14:10:52;;;;;;;;;;;16.10;99.90;;;;;;7341566;19;114955;-75
2022/09/28 14:13:38;;;;;;;;;;;16.00;99.90;;;;;;7336141;19;109291;-76
2022/09/28 14:16:17;;;;;;;;;;;16.00;99.90;;;;;;7336894;19;108821;-75
2022/09/28 14:18:48;;;;;;;;;;;16.00;99.90;;;;;;7337559;19;109344;-75
2022/09/28 14:21:21;;;;;;;;;;;16.10;99.90;;;;;;7332651;19;111550;-74
2022/09/28 14:23:58;;;;;;;;;;;16.10;99.90;;;;;;7335162;19;108489;-75
2022/09/28 14:26:25;;;;;;;;;;;16.20;99.90;;;;;;7334652;19;109135;-75
2022/09/28 14:29:03;;;;;;;;;;;16.20;99.90;;;;;;7336206;19;109752;-75
2022/09/28 14:31:39;;;;;;;;;;;16.20;99.90;;;;;;7337124;19;109358;-76
2022/09/28 14:34:21;;;;;;;;;;;16.30;99.90;;;;;;7341694;19;110791;-76
2022/09/28 14:42:21;;;;;;;;;;;16.80;99.90;;;;;;7334208;19;110196;-75
2022/09/28 14:45:00;;;;;;;;;;;16.90;99.90;;;;;;7336018;19;108580;-74
2022/09/28 14:47:32;;;;;;;;;;;17.10;99.90;;;;;;7335924;19;109203;-75
2022/09/28 14:50:11;;;;;;;;;;;17.20;99.90;;;;;;7335966;19;111146;-75